createdAt,value
2018-02-22T00:01:07.294Z,26.00
2018-02-22T00:03:34.861Z,26.10
2018-02-22T00:06:02.562Z,23.63
2018-02-22T00:08:30.386Z,26.13
2018-02-22T00:10:58.046Z,25.30
2018-02-22T00:13:25.589Z,24.47
2018-02-22T00:15:53.166Z,25.83
2018-02-22T00:18:20.690Z,24.90
2018-02-22T00:20:49.018Z,22.40
2018-02-22T00:23:16.803Z,23.90
2018-02-22T00:25:44.392Z,22.67
2018-02-22T00:28:11.949Z,22.93
2018-02-22T00:30:39.514Z,24.17
2018-02-22T00:33:07.889Z,23.53
2018-02-22T00:35:35.463Z,24.57
2018-02-22T00:38:04.446Z,21.40
2018-02-22T00:40:34.826Z,24.27
2018-02-22T00:43:03.771Z,22.07
2018-02-22T00:55:12.172Z,21.90
2018-02-22T00:57:40.403Z,21.73
2018-02-22T01:00:07.941Z,22.73
2018-02-22T01:02:36.366Z,24.00
2018-02-22T01:05:07.538Z,22.70
2018-02-22T01:07:35.055Z,22.80
2018-02-22T01:10:06.688Z,23.43
2018-02-22T01:12:35.086Z,25.20
2018-02-22T01:15:03.836Z,21.27
2018-02-22T01:17:32.741Z,22.93
2018-02-22T01:20:00.302Z,24.40
2018-02-22T01:22:27.887Z,23.93
2018-02-22T01:24:55.445Z,25.87
2018-02-22T01:27:23.969Z,23.73
2018-02-22T01:29:51.488Z,24.07
2018-02-22T01:32:19.028Z,23.63
2018-02-22T01:34:47.284Z,23.73
2018-02-22T01:37:15.217Z,23.87
2018-02-22T01:39:43.506Z,24.40
2018-02-22T01:42:11.061Z,23.20
2018-02-22T01:44:38.618Z,23.60
2018-02-22T01:47:06.147Z,23.30
2018-02-22T01:49:33.724Z,23.07
2018-02-22T01:52:01.319Z,25.50
2018-02-22T01:54:29.487Z,24.57
2018-02-22T01:56:57.071Z,24.13
2018-02-22T01:59:24.611Z,24.97
2018-02-22T02:01:52.152Z,24.87
2018-02-22T02:04:20.666Z,24.07
2018-02-22T02:06:48.208Z,26.70
2018-02-22T02:09:15.736Z,23.77
2018-02-22T02:11:43.528Z,25.60
2018-02-22T02:14:11.553Z,25.20
2018-02-22T02:16:39.486Z,26.50
2018-02-22T02:19:07.027Z,24.93
2018-02-22T02:21:35.373Z,27.23
2018-02-22T02:24:02.909Z,26.50
2018-02-22T02:26:30.488Z,26.50
2018-02-22T02:28:58.536Z,27.57
2018-02-22T02:31:26.072Z,29.13
2018-02-22T02:33:53.640Z,28.40
2018-02-22T02:36:21.193Z,29.73
2018-02-22T02:38:48.742Z,29.20
2018-02-22T02:41:16.311Z,30.60
2018-02-22T02:43:43.847Z,31.90
2018-02-22T02:46:11.434Z,32.90
2018-02-22T02:48:38.966Z,33.40
2018-02-22T02:51:06.567Z,34.03
2018-02-22T02:53:34.111Z,34.50
2018-02-22T02:56:01.631Z,34.03
2018-02-22T02:58:29.206Z,35.53
2018-02-22T03:00:56.742Z,34.83
2018-02-22T03:03:25.695Z,37.53
2018-02-22T03:05:53.247Z,38.77
2018-02-22T03:08:21.209Z,35.40
2018-02-22T03:10:48.777Z,38.27
2018-02-22T03:13:16.542Z,36.43
2018-02-22T03:15:44.570Z,39.10
2018-02-22T03:18:12.907Z,40.23
2018-02-22T03:20:40.450Z,39.30
2018-02-22T03:23:08.374Z,39.67
2018-02-22T03:25:35.909Z,40.60
2018-02-22T03:28:03.488Z,40.47
2018-02-22T03:30:31.082Z,40.07
2018-02-22T03:32:58.619Z,43.10
2018-02-22T03:35:27.767Z,42.43
2018-02-22T03:37:55.282Z,42.83
2018-02-22T03:40:23.574Z,44.67
2018-02-22T03:42:51.156Z,43.00
2018-02-22T03:45:18.679Z,44.53
2018-02-22T03:47:47.031Z,42.50
2018-02-22T03:50:15.143Z,45.17
2018-02-22T03:52:42.723Z,45.60
2018-02-22T03:55:10.250Z,44.83
2018-02-22T03:57:37.784Z,46.00
2018-02-22T04:00:06.656Z,44.63
2018-02-22T04:02:34.250Z,47.47
2018-02-22T04:05:04.615Z,45.50
2018-02-22T04:07:32.487Z,44.53
2018-02-22T04:10:00.238Z,47.80
2018-02-22T04:12:27.797Z,43.23
2018-02-22T04:14:55.361Z,43.70
2018-02-22T04:17:23.188Z,44.90
2018-02-22T04:19:51.515Z,44.87
2018-02-22T04:22:25.068Z,46.10
2018-02-22T04:24:53.419Z,44.30
2018-02-22T04:27:21.182Z,47.93
2018-02-22T04:29:49.507Z,44.40
2018-02-22T04:32:17.097Z,46.60
2018-02-22T04:34:44.626Z,47.33
2018-02-22T04:37:12.979Z,43.80
2018-02-22T04:39:40.512Z,48.83
2018-02-22T04:42:08.831Z,47.80
2018-02-22T04:44:36.427Z,48.13
2018-02-22T04:47:03.968Z,50.27
2018-02-22T04:49:31.531Z,49.40
2018-02-22T04:51:59.120Z,49.07
2018-02-22T04:54:26.928Z,48.23
2018-02-22T04:56:55.228Z,47.87
2018-02-22T04:59:23.871Z,46.93
2018-02-22T05:01:51.865Z,48.63
2018-02-22T05:04:19.427Z,46.70
2018-02-22T05:06:47.447Z,48.73
2018-02-22T05:09:15.028Z,50.17
2018-02-22T05:11:43.166Z,50.10
2018-02-22T05:14:10.803Z,46.17
2018-02-22T05:16:38.615Z,49.50
2018-02-22T05:19:06.138Z,49.73
2018-02-22T05:21:33.678Z,48.80
2018-02-22T05:24:01.240Z,48.47
2018-02-22T05:26:29.554Z,47.93
2018-02-22T05:28:57.122Z,50.27
2018-02-22T05:31:24.669Z,48.30
2018-02-22T05:33:53.156Z,49.27
2018-02-22T05:36:20.720Z,49.30
2018-02-22T05:38:48.261Z,49.20
2018-02-22T05:41:15.883Z,47.50
2018-02-22T05:43:43.944Z,49.33
2018-02-22T05:46:11.494Z,47.10
2018-02-22T05:48:39.900Z,46.93
2018-02-22T05:51:08.741Z,50.93
2018-02-22T05:53:36.297Z,48.17
2018-02-22T05:56:03.834Z,46.63
2018-02-22T05:58:31.356Z,46.60
2018-02-22T06:00:58.942Z,46.60
2018-02-22T06:03:27.232Z,46.60
2018-02-22T06:05:54.792Z,49.43
2018-02-22T06:08:22.380Z,46.63
2018-02-22T06:10:50.000Z,46.33
2018-02-22T06:13:18.455Z,46.70
2018-02-22T06:15:46.012Z,45.80
2018-02-22T06:18:14.035Z,45.60
2018-02-22T06:20:41.581Z,47.70
2018-02-22T06:23:09.156Z,49.23
2018-02-22T06:25:36.682Z,45.10
2018-02-22T06:28:05.011Z,45.37
2018-02-22T06:30:32.606Z,45.47
2018-02-22T06:33:00.926Z,44.40
2018-02-22T06:35:28.465Z,43.50
2018-02-22T06:37:56.467Z,44.30
2018-02-22T06:40:24.032Z,46.03
2018-02-22T06:42:51.586Z,46.50
2018-02-22T06:45:19.792Z,45.50
2018-02-22T06:47:48.054Z,44.17
2018-02-22T06:50:15.577Z,42.43
2018-02-22T06:52:44.382Z,43.60
2018-02-22T06:55:12.169Z,42.33
2018-02-22T06:57:39.766Z,43.97
2018-02-22T07:00:08.225Z,43.37
2018-02-22T07:02:35.852Z,45.10
2018-02-22T07:05:05.203Z,47.47
2018-02-22T07:07:33.993Z,46.37
2018-02-22T07:10:01.583Z,43.00
2018-02-22T07:12:29.148Z,44.13
2018-02-22T07:14:56.930Z,41.10
2018-02-22T07:17:24.456Z,41.40
2018-02-22T07:19:52.090Z,44.57
2018-02-22T07:22:19.628Z,43.90
2018-02-22T07:24:47.191Z,41.30
2018-02-22T07:27:15.736Z,42.20
2018-02-22T07:29:43.281Z,44.40
2018-02-22T07:32:11.748Z,43.53
2018-02-22T07:34:42.240Z,42.70
2018-02-22T07:37:09.795Z,40.10
2018-02-22T07:39:37.372Z,44.63
2018-02-22T07:42:04.947Z,44.23
2018-02-22T07:44:34.238Z,43.10
2018-02-22T07:47:01.802Z,40.70
2018-02-22T07:49:30.163Z,43.00
2018-02-22T07:51:57.746Z,42.00
2018-02-22T07:54:25.276Z,42.40
2018-02-22T07:56:53.331Z,44.77
2018-02-22T07:59:20.872Z,41.47
2018-02-22T08:01:49.033Z,41.90
2018-02-22T08:04:16.645Z,42.43
2018-02-22T08:06:44.250Z,41.57
2018-02-22T08:09:12.606Z,39.80
2018-02-22T08:11:40.165Z,40.40
2018-02-22T08:14:09.238Z,43.40
2018-02-22T08:16:36.797Z,41.13
2018-02-22T08:19:05.207Z,40.13
2018-02-22T08:21:32.760Z,37.80
2018-02-22T08:24:00.377Z,40.10
2018-02-22T08:26:28.164Z,43.83
2018-02-22T08:28:56.021Z,42.57
2018-02-22T08:31:24.356Z,41.10
2018-02-22T08:33:52.520Z,41.60
2018-02-22T08:36:20.724Z,41.73
2018-02-22T08:38:48.880Z,39.67
2018-02-22T08:41:16.399Z,42.33
2018-02-22T08:43:43.951Z,42.43
2018-02-22T08:46:11.651Z,41.60
2018-02-22T08:48:39.462Z,43.50
2018-02-22T08:51:07.029Z,41.50
2018-02-22T08:53:34.587Z,38.13
2018-02-22T08:56:02.189Z,39.70
2018-02-22T08:58:30.504Z,39.37
2018-02-22T09:00:58.105Z,42.20
2018-02-22T09:03:25.782Z,39.80
2018-02-22T09:05:54.829Z,41.60
2018-02-22T09:08:22.584Z,41.40
2018-02-22T09:10:50.131Z,41.23
2018-02-22T09:13:18.758Z,40.30
2018-02-22T09:15:46.354Z,39.77
2018-02-22T09:18:14.343Z,41.10
2018-02-22T09:20:43.162Z,42.60
2018-02-22T09:23:11.783Z,39.00
2018-02-22T09:25:40.245Z,39.87
2018-02-22T09:28:08.813Z,40.00
2018-02-22T09:30:36.389Z,39.60
2018-02-22T09:33:03.965Z,41.47
2018-02-22T09:35:31.915Z,41.17
2018-02-22T09:37:59.462Z,36.93
2018-02-22T09:40:26.996Z,38.30
2018-02-22T09:42:54.592Z,40.13
2018-02-22T09:45:22.129Z,40.40
2018-02-22T09:47:50.065Z,38.80
2018-02-22T09:50:17.625Z,36.73
2018-02-22T09:52:45.190Z,38.83
2018-02-22T09:55:14.284Z,39.63
2018-02-22T09:57:41.850Z,37.37
2018-02-22T10:00:10.156Z,38.40
2018-02-22T10:02:39.202Z,39.00
2018-02-22T10:05:08.671Z,37.03
2018-02-22T10:07:36.277Z,36.33
2018-02-22T10:10:04.709Z,35.97
2018-02-22T10:12:32.247Z,38.03
2018-02-22T10:14:59.782Z,36.47
2018-02-22T10:17:28.315Z,35.53
2018-02-22T10:19:55.856Z,38.53
2018-02-22T10:22:23.438Z,37.80
2018-02-22T10:24:50.998Z,35.67
2018-02-22T10:27:18.601Z,35.80
2018-02-22T10:29:46.150Z,36.47
2018-02-22T10:32:14.623Z,40.90
2018-02-22T10:34:42.687Z,40.73
2018-02-22T10:37:11.143Z,36.37
2018-02-22T10:39:39.897Z,37.97
2018-02-22T10:42:11.192Z,33.67
2018-02-22T10:44:38.802Z,35.83
2018-02-22T10:47:08.651Z,35.90
2018-02-22T10:49:38.876Z,34.67
2018-02-22T10:52:06.852Z,35.73
2018-02-22T10:54:34.566Z,36.00
2018-02-22T10:57:03.506Z,34.70
2018-02-22T10:59:32.491Z,35.53
2018-02-22T11:02:05.944Z,37.17
2018-02-22T11:04:33.492Z,36.07
2018-02-22T11:07:02.358Z,33.60
2018-02-22T11:09:29.938Z,35.50
2018-02-22T11:11:57.559Z,37.40
2018-02-22T11:14:25.095Z,36.27
2018-02-22T11:16:52.660Z,36.20
2018-02-22T11:19:20.263Z,37.67
2018-02-22T11:21:47.871Z,36.40
2018-02-22T11:24:16.202Z,34.43
2018-02-22T11:26:43.772Z,36.37
2018-02-22T11:29:11.333Z,32.87
2018-02-22T11:31:38.895Z,36.60
2018-02-22T11:34:06.436Z,32.07
2018-02-22T11:36:33.975Z,35.90
2018-02-22T11:39:02.293Z,37.27
2018-02-22T11:41:29.863Z,33.63
2018-02-22T11:43:58.172Z,37.20
2018-02-22T11:46:26.513Z,35.20
2018-02-22T11:48:54.101Z,35.40
2018-02-22T11:51:22.420Z,33.27
2018-02-22T11:53:50.187Z,34.60
2018-02-22T11:56:17.830Z,35.47
2018-02-22T11:58:45.368Z,35.00
2018-02-22T12:01:13.556Z,36.63
2018-02-22T12:03:41.082Z,34.13
2018-02-22T12:06:08.662Z,34.93
2018-02-22T12:08:36.189Z,35.67
2018-02-22T12:11:03.785Z,34.53
2018-02-22T12:13:32.087Z,32.67
2018-02-22T12:15:59.855Z,33.90
2018-02-22T12:18:27.397Z,32.80
2018-02-22T12:20:55.731Z,31.83
2018-02-22T12:23:23.666Z,32.80
2018-02-22T12:25:51.221Z,34.03
2018-02-22T12:28:19.742Z,35.03
2018-02-22T12:30:47.286Z,34.80
2018-02-22T12:33:15.167Z,35.87
2018-02-22T12:35:44.395Z,33.70
2018-02-22T12:38:11.942Z,36.60
2018-02-22T12:40:40.383Z,34.77
2018-02-22T12:43:08.033Z,34.43
2018-02-22T12:45:35.573Z,33.03
2018-02-22T12:48:03.106Z,35.00
2018-02-22T12:50:31.693Z,34.50
2018-02-22T12:52:59.224Z,36.17
2018-02-22T12:55:26.794Z,36.20
2018-02-22T12:57:54.401Z,38.20
2018-02-22T13:00:21.940Z,35.63
2018-02-22T13:02:50.267Z,37.97
2018-02-22T13:05:17.862Z,41.20
2018-02-22T13:07:45.395Z,41.20
2018-02-22T13:10:14.142Z,36.67
2018-02-22T13:12:41.702Z,35.60
2018-02-22T13:15:09.916Z,36.40
2018-02-22T13:17:37.978Z,35.83
2018-02-22T13:20:07.778Z,37.07
2018-02-22T13:22:35.327Z,36.47
2018-02-22T13:25:04.587Z,34.00
2018-02-22T13:27:32.137Z,37.33
2018-02-22T13:30:00.601Z,38.97
2018-02-22T13:32:29.269Z,36.10
2018-02-22T13:34:58.125Z,34.83
2018-02-22T13:37:48.451Z,36.27
2018-02-22T13:40:18.330Z,37.90
2018-02-22T13:42:48.469Z,37.20
2018-02-22T13:45:37.470Z,34.97
2018-02-22T13:48:07.401Z,37.20
2018-02-22T13:50:47.649Z,35.63
2018-02-22T13:53:16.094Z,36.20
2018-02-22T13:55:45.464Z,36.07
2018-02-22T13:58:15.709Z,36.10
2018-02-22T14:00:56.193Z,36.07
2018-02-22T14:03:25.517Z,36.27
2018-02-22T14:05:54.662Z,33.60
2018-02-22T14:08:43.425Z,36.13
2018-02-22T14:11:12.571Z,36.00
2018-02-22T14:13:40.590Z,34.23
2018-02-22T14:16:08.221Z,35.10
2018-02-22T14:18:36.457Z,36.40
2018-02-22T14:21:04.824Z,36.00
2018-02-22T14:23:36.837Z,34.10
2018-02-22T14:26:04.892Z,33.83
2018-02-22T14:28:34.779Z,33.83
2018-02-22T14:31:03.070Z,35.80
2018-02-22T14:43:12.012Z,31.23
2018-02-22T14:45:43.925Z,30.80
2018-02-22T14:48:12.750Z,31.60
2018-02-22T14:50:43.159Z,35.43
2018-02-22T14:53:13.023Z,33.13
2018-02-22T14:55:41.426Z,31.70
2018-02-22T14:58:10.294Z,32.10
2018-02-22T15:00:40.692Z,31.60
2018-02-22T15:03:09.282Z,31.40
2018-02-22T15:05:36.965Z,33.30
2018-02-22T15:08:04.519Z,32.93
2018-02-22T15:10:32.148Z,31.33
2018-02-22T15:12:59.689Z,31.57
2018-02-22T15:15:27.221Z,31.67
2018-02-22T15:17:54.808Z,30.83
2018-02-22T15:20:22.364Z,31.77
2018-02-22T15:22:49.991Z,36.40
2018-02-22T15:25:17.521Z,30.23
2018-02-22T15:27:46.244Z,29.33
2018-02-22T15:30:14.416Z,30.70
2018-02-22T15:32:41.984Z,31.50
2018-02-22T15:35:09.666Z,30.93
2018-02-22T15:37:38.004Z,30.37
2018-02-22T15:40:07.273Z,30.10
2018-02-22T15:42:35.713Z,29.53
2018-02-22T15:45:04.013Z,28.50
2018-02-22T15:47:32.007Z,28.70
2018-02-22T15:50:00.449Z,24.90
2018-02-22T15:52:28.025Z,26.60
2018-02-22T15:54:55.567Z,26.03
2018-02-22T15:57:24.338Z,25.30
2018-02-22T15:59:51.920Z,27.40
2018-02-22T16:02:19.461Z,26.67
2018-02-22T16:04:47.253Z,26.53
2018-02-22T16:07:14.780Z,25.50
2018-02-22T16:09:42.327Z,24.80
2018-02-22T16:12:10.221Z,24.93
2018-02-22T16:14:37.799Z,25.90
2018-02-22T16:17:05.331Z,26.40
2018-02-22T16:19:32.908Z,26.00
2018-02-22T16:22:00.447Z,23.53
2018-02-22T16:24:28.475Z,23.97
2018-02-22T16:26:56.111Z,26.37
2018-02-22T16:29:23.655Z,26.40
2018-02-22T16:31:51.324Z,26.40
2018-02-22T16:34:19.419Z,29.53
2018-02-22T16:36:46.954Z,26.77
2018-02-22T16:39:14.534Z,25.30
2018-02-22T16:41:42.084Z,28.07
2018-02-22T16:44:11.455Z,24.97
2018-02-22T16:46:39.023Z,25.50
2018-02-22T16:49:06.613Z,27.87
2018-02-22T16:51:35.280Z,27.27
2018-02-22T16:54:05.113Z,27.37
2018-02-22T16:56:36.010Z,26.70
2018-02-22T16:59:05.020Z,26.43
2018-02-22T17:01:33.269Z,28.33
2018-02-22T17:04:01.610Z,26.47
2018-02-22T17:06:29.211Z,27.00
2018-02-22T17:08:56.971Z,26.80
2018-02-22T17:11:24.499Z,28.27
2018-02-22T17:13:52.109Z,28.80
2018-02-22T17:16:19.642Z,29.53
2018-02-22T17:18:47.243Z,28.63
2018-02-22T17:21:15.257Z,29.77
2018-02-22T17:23:42.839Z,30.67
2018-02-22T17:26:16.805Z,29.10
2018-02-22T17:28:50.925Z,28.67
2018-02-22T17:31:24.062Z,27.33
2018-02-22T17:33:51.637Z,25.67
2018-02-22T17:36:20.823Z,25.70
2018-02-22T17:38:51.388Z,27.67
2018-02-22T17:41:20.512Z,26.53
2018-02-22T17:43:48.877Z,27.63
2018-02-22T17:46:16.500Z,25.10
2018-02-22T17:48:44.285Z,26.60
2018-02-22T17:51:11.855Z,26.60
2018-02-22T17:53:39.945Z,25.73
2018-02-22T17:56:07.887Z,26.87
2018-02-22T17:58:35.466Z,26.73
2018-02-22T18:01:03.718Z,28.07
2018-02-22T18:03:31.353Z,28.17
2018-02-22T18:05:58.953Z,26.80
2018-02-22T18:08:26.532Z,25.73
2018-02-22T18:10:54.127Z,26.20
2018-02-22T18:13:22.085Z,25.90
2018-02-22T18:15:49.646Z,25.20
2018-02-22T18:18:18.032Z,24.90
2018-02-22T18:20:46.570Z,25.97
2018-02-22T18:23:14.248Z,26.90
2018-02-22T18:25:42.613Z,25.40
2018-02-22T18:28:11.080Z,24.60
2018-02-22T18:30:38.709Z,26.00
2018-02-22T18:33:06.461Z,25.73
2018-02-22T18:35:34.003Z,26.07
2018-02-22T18:38:01.535Z,26.40
2018-02-22T18:40:34.819Z,28.83
2018-02-22T18:43:07.924Z,27.97
2018-02-22T18:45:35.501Z,34.20
2018-02-22T18:48:04.674Z,28.37
2018-02-22T18:50:32.300Z,26.60
2018-02-22T18:52:59.883Z,27.87
2018-02-22T18:55:27.672Z,27.03
2018-02-22T18:57:55.225Z,27.27
2018-02-22T19:00:23.128Z,28.50
2018-02-22T19:02:50.728Z,27.27
2018-02-22T19:05:18.329Z,27.90
2018-02-22T19:07:46.367Z,27.47
2018-02-22T19:10:13.901Z,26.53
2018-02-22T19:12:42.455Z,26.50
2018-02-22T19:15:10.863Z,29.57
2018-02-22T19:17:38.860Z,25.73
2018-02-22T19:20:07.808Z,27.20
2018-02-22T19:22:36.885Z,27.83
2018-02-22T19:25:06.832Z,27.03
2018-02-22T19:27:35.202Z,24.23
2018-02-22T19:30:03.782Z,26.17
2018-02-22T19:32:32.287Z,26.40
2018-02-22T19:34:59.824Z,26.77
2018-02-22T19:37:27.551Z,26.00
2018-02-22T19:39:55.087Z,26.83
2018-02-22T19:42:22.624Z,27.80
2018-02-22T19:44:50.222Z,25.70
2018-02-22T19:47:18.819Z,25.43
2018-02-22T19:49:46.342Z,30.77
2018-02-22T19:52:14.235Z,37.20
2018-02-22T19:54:41.845Z,27.60
2018-02-22T19:57:09.508Z,37.30
2018-02-22T19:59:37.335Z,29.90
2018-02-22T20:02:04.876Z,27.00
2018-02-22T20:04:32.517Z,40.47
2018-02-22T20:07:00.112Z,27.20
2018-02-22T20:09:27.905Z,29.37
2018-02-22T20:11:56.926Z,50.57
2018-02-22T20:14:24.567Z,28.87
2018-02-22T20:16:53.526Z,32.73
2018-02-22T20:19:22.654Z,31.10
2018-02-22T20:21:50.256Z,38.90
2018-02-22T20:24:18.343Z,37.10
2018-02-22T20:26:47.348Z,29.57
2018-02-22T20:29:14.969Z,28.20
2018-02-22T20:31:42.499Z,25.30
2018-02-22T20:34:11.594Z,25.43
2018-02-22T20:36:39.179Z,27.50
2018-02-22T20:39:06.741Z,26.20
2018-02-22T20:41:34.301Z,25.87
2018-02-22T20:44:01.898Z,26.87
2018-02-22T20:46:29.465Z,26.87
2018-02-22T20:48:57.025Z,28.10
2018-02-22T20:51:25.144Z,27.93
2018-02-22T20:53:52.786Z,27.23
2018-02-22T20:56:21.139Z,28.57
2018-02-22T20:58:48.720Z,26.10
2018-02-22T21:01:17.327Z,25.90
2018-02-22T21:03:45.782Z,26.67
2018-02-22T21:06:13.311Z,28.07
2018-02-22T21:08:41.668Z,26.33
2018-02-22T21:11:09.226Z,27.10
2018-02-22T21:13:36.792Z,26.27
2018-02-22T21:16:04.401Z,25.67
2018-02-22T21:18:31.930Z,27.50
2018-02-22T21:20:59.498Z,27.17
2018-02-22T21:23:27.081Z,27.20
2018-02-22T21:25:54.639Z,25.90
2018-02-22T21:28:22.213Z,29.00
2018-02-22T21:30:49.814Z,38.00
2018-02-22T21:33:17.456Z,37.97
2018-02-22T21:35:46.122Z,45.70
2018-02-22T21:38:13.692Z,35.77
2018-02-22T21:40:41.274Z,55.47
2018-02-22T21:43:08.862Z,46.27
2018-02-22T21:45:36.465Z,33.00
2018-02-22T21:48:04.865Z,38.73
2018-02-22T21:50:32.444Z,38.40
2018-02-22T21:53:00.062Z,55.63
2018-02-22T21:55:27.629Z,34.47
2018-02-22T21:57:55.194Z,60.80
2018-02-22T22:00:23.572Z,71.07
2018-02-22T22:02:52.847Z,34.90
2018-02-22T22:05:20.408Z,50.47
2018-02-22T22:07:48.748Z,42.27
2018-02-22T22:10:16.439Z,44.27
2018-02-22T22:12:44.029Z,40.90
2018-02-22T22:15:11.593Z,47.37
2018-02-22T22:17:40.614Z,85.47
2018-02-22T22:20:08.158Z,35.53
2018-02-22T22:22:35.776Z,29.17
2018-02-22T22:25:05.030Z,44.20
2018-02-22T22:27:32.653Z,44.07
2018-02-22T22:30:00.226Z,38.40
2018-02-22T22:32:27.778Z,29.00
2018-02-22T22:34:56.283Z,26.77
2018-02-22T22:37:23.806Z,55.63
2018-02-22T22:39:51.361Z,51.80
2018-02-22T22:42:19.865Z,63.07
2018-02-22T22:44:47.573Z,38.30
2018-02-22T22:47:15.118Z,38.17
2018-02-22T22:49:42.702Z,31.77
2018-02-22T22:52:11.311Z,36.60
2018-02-22T22:54:39.596Z,31.30
2018-02-22T22:57:07.176Z,54.07
2018-02-22T22:59:36.465Z,44.47
2018-02-22T23:02:05.075Z,45.20
2018-02-22T23:04:32.613Z,36.67
2018-02-22T23:07:01.029Z,51.53
2018-02-22T23:09:28.714Z,37.03
2018-02-22T23:11:56.246Z,38.10
2018-02-22T23:14:24.498Z,35.03
2018-02-22T23:16:52.807Z,30.10
2018-02-22T23:19:20.387Z,34.67
2018-02-22T23:21:47.924Z,31.60
2018-02-22T23:24:15.982Z,50.10
2018-02-22T23:26:43.566Z,38.30
2018-02-22T23:29:11.095Z,33.60
2018-02-22T23:31:38.724Z,36.73
2018-02-22T23:34:07.303Z,67.17
2018-02-22T23:36:35.626Z,40.30
2018-02-22T23:39:03.237Z,64.90
2018-02-22T23:41:50.263Z,43.70
2018-02-22T23:44:18.305Z,33.87
2018-02-22T23:46:45.945Z,38.53
2018-02-22T23:49:13.492Z,32.30
2018-02-22T23:51:41.063Z,45.60
2018-02-22T23:54:08.618Z,43.57
2018-02-22T23:56:36.160Z,61.23
2018-02-22T23:59:04.532Z,40.10
